sensor_id;sensor_type;location;lat;lon;timestamp;P1;durP1;ratioP1;P2;durP2;ratioP2
72065;SDS011;59939;52.516;13.420;2023-02-28T00:00:32;11.00;;;3.93;;
72065;SDS011;59939;52.516;13.420;2023-02-28T00:03:36;10.27;;;4.00;;
72065;SDS011;59939;52.516;13.420;2023-02-28T00:06:41;11.40;;;3.70;;
72065;SDS011;59939;52.516;13.420;2023-02-28T00:09:45;14.43;;;4.60;;
72065;SDS011;59939;52.516;13.420;2023-02-28T00:12:50;13.33;;;4.37;;
72065;SDS011;59939;52.516;13.420;2023-02-28T00:16:09;11.67;;;3.40;;
72065;SDS011;59939;52.516;13.420;2023-02-28T00:19:13;9.97;;;3.63;;
72065;SDS011;59939;52.516;13.420;2023-02-28T00:22:32;13.60;;;4.40;;
72065;SDS011;59939;52.516;13.420;2023-02-28T00:25:35;15.30;;;4.57;;
72065;SDS011;59939;52.516;13.420;2023-02-28T00:28:41;12.93;;;4.20;;
72065;SDS011;59939;52.516;13.420;2023-02-28T00:31:45;11.47;;;4.13;;
72065;SDS011;59939;52.516;13.420;2023-02-28T00:34:51;11.13;;;3.83;;
72065;SDS011;59939;52.516;13.420;2023-02-28T00:37:55;14.00;;;4.27;;
72065;SDS011;59939;52.516;13.420;2023-02-28T00:41:03;13.33;;;4.37;;
72065;SDS011;59939;52.516;13.420;2023-02-28T00:44:20;13.10;;;4.20;;
72065;SDS011;59939;52.516;13.420;2023-02-28T00:47:25;13.43;;;4.70;;
72065;SDS011;59939;52.516;13.420;2023-02-28T00:50:29;11.93;;;3.90;;
72065;SDS011;59939;52.516;13.420;2023-02-28T00:53:34;10.87;;;4.47;;
72065;SDS011;59939;52.516;13.420;2023-02-28T00:56:38;11.93;;;4.40;;
72065;SDS011;59939;52.516;13.420;2023-02-28T00:59:42;12.40;;;4.27;;
72065;SDS011;59939;52.516;13.420;2023-02-28T01:02:45;12.50;;;4.67;;
72065;SDS011;59939;52.516;13.420;2023-02-28T01:05:52;14.47;;;4.50;;
72065;SDS011;59939;52.516;13.420;2023-02-28T01:08:57;12.43;;;4.60;;
72065;SDS011;59939;52.516;13.420;2023-02-28T01:12:00;11.97;;;4.10;;
72065;SDS011;59939;52.516;13.420;2023-02-28T01:15:12;12.30;;;4.10;;
72065;SDS011;59939;52.516;13.420;2023-02-28T01:18:15;14.80;;;5.20;;
72065;SDS011;59939;52.516;13.420;2023-02-28T01:21:19;14.23;;;4.73;;
72065;SDS011;59939;52.516;13.420;2023-02-28T01:24:32;13.03;;;4.60;;
72065;SDS011;59939;52.516;13.420;2023-02-28T01:27:38;12.43;;;4.00;;
72065;SDS011;59939;52.516;13.420;2023-02-28T01:31:07;12.60;;;4.53;;
72065;SDS011;59939;52.516;13.420;2023-02-28T01:34:17;13.83;;;5.30;;
72065;SDS011;59939;52.516;13.420;2023-02-28T01:37:30;13.33;;;4.83;;
72065;SDS011;59939;52.516;13.420;2023-02-28T01:40:34;15.00;;;5.20;;
72065;SDS011;59939;52.516;13.420;2023-02-28T01:46:48;16.40;;;6.10;;
72065;SDS011;59939;52.516;13.420;2023-02-28T01:49:52;13.30;;;4.70;;
72065;SDS011;59939;52.516;13.420;2023-02-28T01:52:57;12.67;;;5.23;;
72065;SDS011;59939;52.516;13.420;2023-02-28T01:56:04;13.13;;;5.00;;
72065;SDS011;59939;52.516;13.420;2023-02-28T01:59:12;12.83;;;4.60;;
72065;SDS011;59939;52.516;13.420;2023-02-28T02:02:19;16.93;;;5.30;;
72065;SDS011;59939;52.516;13.420;2023-02-28T02:05:28;11.80;;;5.07;;
72065;SDS011;59939;52.516;13.420;2023-02-28T02:08:37;18.53;;;5.00;;
72065;SDS011;59939;52.516;13.420;2023-02-28T02:11:43;16.93;;;5.10;;
72065;SDS011;59939;52.516;13.420;2023-02-28T02:17:56;15.40;;;4.87;;
72065;SDS011;59939;52.516;13.420;2023-02-28T02:21:07;11.43;;;4.80;;
72065;SDS011;59939;52.516;13.420;2023-02-28T02:27:33;12.90;;;5.10;;
72065;SDS011;59939;52.516;13.420;2023-02-28T02:30:57;15.37;;;5.53;;
72065;SDS011;59939;52.516;13.420;2023-02-28T02:40:37;13.60;;;4.90;;
72065;SDS011;59939;52.516;13.420;2023-02-28T02:44:01;16.60;;;5.70;;
72065;SDS011;59939;52.516;13.420;2023-02-28T02:47:09;13.53;;;5.47;;
72065;SDS011;59939;52.516;13.420;2023-02-28T02:50:38;17.03;;;6.00;;
72065;SDS011;59939;52.516;13.420;2023-02-28T02:53:52;14.23;;;5.27;;
72065;SDS011;59939;52.516;13.420;2023-02-28T02:57:01;16.27;;;6.03;;
72065;SDS011;59939;52.516;13.420;2023-02-28T03:00:07;15.17;;;5.73;;
72065;SDS011;59939;52.516;13.420;2023-02-28T03:03:12;15.63;;;5.37;;
72065;SDS011;59939;52.516;13.420;2023-02-28T03:06:16;16.93;;;5.63;;
72065;SDS011;59939;52.516;13.420;2023-02-28T03:09:20;18.67;;;5.30;;
72065;SDS011;59939;52.516;13.420;2023-02-28T03:12:49;15.27;;;5.53;;
72065;SDS011;59939;52.516;13.420;2023-02-28T03:22:30;18.40;;;6.20;;
72065;SDS011;59939;52.516;13.420;2023-02-28T03:25:56;14.47;;;5.63;;
72065;SDS011;59939;52.516;13.420;2023-02-28T03:29:09;16.83;;;6.97;;
72065;SDS011;59939;52.516;13.420;2023-02-28T03:35:49;18.23;;;6.40;;
72065;SDS011;59939;52.516;13.420;2023-02-28T03:38:59;16.43;;;6.77;;
72065;SDS011;59939;52.516;13.420;2023-02-28T03:42:10;16.50;;;6.50;;
72065;SDS011;59939;52.516;13.420;2023-02-28T03:45:29;18.90;;;6.73;;
72065;SDS011;59939;52.516;13.420;2023-02-28T03:48:43;13.87;;;5.93;;
72065;SDS011;59939;52.516;13.420;2023-02-28T03:51:48;16.77;;;6.30;;
72065;SDS011;59939;52.516;13.420;2023-02-28T03:54:53;15.63;;;5.83;;
72065;SDS011;59939;52.516;13.420;2023-02-28T03:58:01;19.90;;;6.67;;
72065;SDS011;59939;52.516;13.420;2023-02-28T04:01:14;14.43;;;6.50;;
72065;SDS011;59939;52.516;13.420;2023-02-28T04:04:18;16.47;;;5.97;;
72065;SDS011;59939;52.516;13.420;2023-02-28T04:07:23;17.20;;;6.23;;
72065;SDS011;59939;52.516;13.420;2023-02-28T04:10:26;17.23;;;6.23;;
72065;SDS011;59939;52.516;13.420;2023-02-28T04:13:33;16.77;;;6.57;;
72065;SDS011;59939;52.516;13.420;2023-02-28T04:16:40;18.00;;;6.77;;
72065;SDS011;59939;52.516;13.420;2023-02-28T04:19:44;17.40;;;6.67;;
72065;SDS011;59939;52.516;13.420;2023-02-28T04:22:49;17.13;;;6.87;;
72065;SDS011;59939;52.516;13.420;2023-02-28T04:25:56;16.90;;;7.03;;
72065;SDS011;59939;52.516;13.420;2023-02-28T04:29:00;18.20;;;6.23;;
72065;SDS011;59939;52.516;13.420;2023-02-28T04:32:04;15.00;;;5.47;;
72065;SDS011;59939;52.516;13.420;2023-02-28T04:35:10;17.70;;;6.83;;
72065;SDS011;59939;52.516;13.420;2023-02-28T04:38:20;15.17;;;6.30;;
72065;SDS011;59939;52.516;13.420;2023-02-28T04:41:24;15.03;;;6.07;;
72065;SDS011;59939;52.516;13.420;2023-02-28T04:44:44;18.77;;;6.80;;
72065;SDS011;59939;52.516;13.420;2023-02-28T04:47:47;20.27;;;6.83;;
72065;SDS011;59939;52.516;13.420;2023-02-28T04:50:51;17.57;;;6.73;;
72065;SDS011;59939;52.516;13.420;2023-02-28T04:53:55;16.47;;;6.53;;
72065;SDS011;59939;52.516;13.420;2023-02-28T04:56:59;17.13;;;6.57;;
72065;SDS011;59939;52.516;13.420;2023-02-28T05:00:03;16.43;;;6.57;;
72065;SDS011;59939;52.516;13.420;2023-02-28T05:03:10;16.73;;;6.27;;
72065;SDS011;59939;52.516;13.420;2023-02-28T05:06:14;16.73;;;6.67;;
72065;SDS011;59939;52.516;13.420;2023-02-28T05:09:18;14.47;;;6.40;;
72065;SDS011;59939;52.516;13.420;2023-02-28T05:12:21;15.23;;;5.73;;
72065;SDS011;59939;52.516;13.420;2023-02-28T05:15:26;15.63;;;6.73;;
72065;SDS011;59939;52.516;13.420;2023-02-28T05:18:30;19.17;;;6.63;;
72065;SDS011;59939;52.516;13.420;2023-02-28T05:21:38;17.83;;;7.37;;
72065;SDS011;59939;52.516;13.420;2023-02-28T05:24:42;15.23;;;6.80;;
72065;SDS011;59939;52.516;13.420;2023-02-28T05:27:48;20.00;;;6.87;;
72065;SDS011;59939;52.516;13.420;2023-02-28T05:30:52;17.93;;;7.47;;
72065;SDS011;59939;52.516;13.420;2023-02-28T05:33:57;19.47;;;7.07;;
72065;SDS011;59939;52.516;13.420;2023-02-28T05:37:02;19.10;;;6.90;;
72065;SDS011;59939;52.516;13.420;2023-02-28T05:40:06;20.07;;;7.43;;
72065;SDS011;59939;52.516;13.420;2023-02-28T05:43:10;18.87;;;7.37;;
72065;SDS011;59939;52.516;13.420;2023-02-28T05:46:16;22.37;;;7.47;;
72065;SDS011;59939;52.516;13.420;2023-02-28T05:49:21;18.47;;;7.07;;
72065;SDS011;59939;52.516;13.420;2023-02-28T05:52:25;19.13;;;6.67;;
72065;SDS011;59939;52.516;13.420;2023-02-28T05:55:28;19.10;;;6.90;;
72065;SDS011;59939;52.516;13.420;2023-02-28T05:58:32;19.10;;;7.23;;
72065;SDS011;59939;52.516;13.420;2023-02-28T06:01:37;17.47;;;6.77;;
72065;SDS011;59939;52.516;13.420;2023-02-28T06:04:41;22.63;;;7.60;;
72065;SDS011;59939;52.516;13.420;2023-02-28T06:07:46;19.13;;;7.03;;
72065;SDS011;59939;52.516;13.420;2023-02-28T06:10:49;18.00;;;7.33;;
72065;SDS011;59939;52.516;13.420;2023-02-28T06:13:56;17.90;;;7.13;;
72065;SDS011;59939;52.516;13.420;2023-02-28T06:17:01;20.17;;;7.00;;
72065;SDS011;59939;52.516;13.420;2023-02-28T06:20:05;16.10;;;6.70;;
72065;SDS011;59939;52.516;13.420;2023-02-28T06:23:09;17.27;;;7.30;;
72065;SDS011;59939;52.516;13.420;2023-02-28T06:26:15;23.27;;;7.57;;
72065;SDS011;59939;52.516;13.420;2023-02-28T06:29:19;24.57;;;8.17;;
72065;SDS011;59939;52.516;13.420;2023-02-28T06:32:31;17.10;;;7.27;;
72065;SDS011;59939;52.516;13.420;2023-02-28T06:35:34;17.30;;;7.10;;
72065;SDS011;59939;52.516;13.420;2023-02-28T06:38:41;17.60;;;7.33;;
72065;SDS011;59939;52.516;13.420;2023-02-28T06:41:45;19.47;;;7.40;;
72065;SDS011;59939;52.516;13.420;2023-02-28T06:44:58;22.20;;;7.37;;
72065;SDS011;59939;52.516;13.420;2023-02-28T06:48:02;22.43;;;7.47;;
72065;SDS011;59939;52.516;13.420;2023-02-28T06:51:10;17.17;;;7.40;;
72065;SDS011;59939;52.516;13.420;2023-02-28T06:54:15;17.77;;;6.77;;
72065;SDS011;59939;52.516;13.420;2023-02-28T06:57:19;19.63;;;8.07;;
72065;SDS011;59939;52.516;13.420;2023-02-28T07:00:25;20.00;;;6.87;;
72065;SDS011;59939;52.516;13.420;2023-02-28T07:03:31;18.03;;;6.50;;
72065;SDS011;59939;52.516;13.420;2023-02-28T07:06:37;20.43;;;7.33;;
72065;SDS011;59939;52.516;13.420;2023-02-28T07:09:41;18.13;;;7.07;;
72065;SDS011;59939;52.516;13.420;2023-02-28T07:12:45;18.63;;;7.30;;
72065;SDS011;59939;52.516;13.420;2023-02-28T07:15:58;17.00;;;6.80;;
72065;SDS011;59939;52.516;13.420;2023-02-28T07:19:03;20.93;;;7.47;;
72065;SDS011;59939;52.516;13.420;2023-02-28T07:22:08;17.50;;;6.70;;
72065;SDS011;59939;52.516;13.420;2023-02-28T07:25:21;19.77;;;8.10;;
72065;SDS011;59939;52.516;13.420;2023-02-28T07:28:27;19.03;;;7.37;;
72065;SDS011;59939;52.516;13.420;2023-02-28T07:31:31;22.33;;;7.63;;
72065;SDS011;59939;52.516;13.420;2023-02-28T07:34:35;20.50;;;6.97;;
72065;SDS011;59939;52.516;13.420;2023-02-28T07:37:47;35.17;;;7.50;;
72065;SDS011;59939;52.516;13.420;2023-02-28T07:40:52;17.90;;;6.70;;
72065;SDS011;59939;52.516;13.420;2023-02-28T07:43:55;17.63;;;6.60;;
72065;SDS011;59939;52.516;13.420;2023-02-28T07:47:01;18.93;;;6.83;;
72065;SDS011;59939;52.516;13.420;2023-02-28T07:50:06;19.37;;;7.37;;
72065;SDS011;59939;52.516;13.420;2023-02-28T07:53:11;20.87;;;7.07;;
72065;SDS011;59939;52.516;13.420;2023-02-28T07:56:24;20.43;;;6.60;;
72065;SDS011;59939;52.516;13.420;2023-02-28T07:59:28;17.27;;;6.00;;
72065;SDS011;59939;52.516;13.420;2023-02-28T08:02:35;15.33;;;5.87;;
72065;SDS011;59939;52.516;13.420;2023-02-28T08:05:39;19.17;;;6.17;;
72065;SDS011;59939;52.516;13.420;2023-02-28T08:08:44;17.03;;;6.00;;
72065;SDS011;59939;52.516;13.420;2023-02-28T08:11:48;20.07;;;6.47;;
72065;SDS011;59939;52.516;13.420;2023-02-28T08:14:54;18.17;;;5.40;;
72065;SDS011;59939;52.516;13.420;2023-02-28T08:17:57;15.83;;;4.60;;
72065;SDS011;59939;52.516;13.420;2023-02-28T08:21:07;14.70;;;4.43;;
72065;SDS011;59939;52.516;13.420;2023-02-28T08:24:13;14.47;;;3.60;;
72065;SDS011;59939;52.516;13.420;2023-02-28T08:27:17;11.23;;;3.40;;
72065;SDS011;59939;52.516;13.420;2023-02-28T08:30:28;12.30;;;2.77;;
72065;SDS011;59939;52.516;13.420;2023-02-28T08:33:32;6.40;;;2.63;;
72065;SDS011;59939;52.516;13.420;2023-02-28T08:36:36;6.33;;;2.50;;
72065;SDS011;59939;52.516;13.420;2023-02-28T08:39:41;8.07;;;2.60;;
72065;SDS011;59939;52.516;13.420;2023-02-28T08:42:44;8.47;;;2.90;;
72065;SDS011;59939;52.516;13.420;2023-02-28T08:45:50;9.80;;;3.27;;
72065;SDS011;59939;52.516;13.420;2023-02-28T08:48:55;8.10;;;2.43;;
72065;SDS011;59939;52.516;13.420;2023-02-28T08:52:10;11.63;;;3.07;;
72065;SDS011;59939;52.516;13.420;2023-02-28T08:55:13;10.80;;;3.10;;
72065;SDS011;59939;52.516;13.420;2023-02-28T08:58:20;9.47;;;2.73;;
72065;SDS011;59939;52.516;13.420;2023-02-28T09:01:27;11.87;;;3.50;;
72065;SDS011;59939;52.516;13.420;2023-02-28T09:04:33;7.63;;;3.00;;
72065;SDS011;59939;52.516;13.420;2023-02-28T09:07:37;8.53;;;3.07;;
72065;SDS011;59939;52.516;13.420;2023-02-28T09:10:41;6.97;;;2.30;;
72065;SDS011;59939;52.516;13.420;2023-02-28T09:13:45;6.73;;;2.27;;
72065;SDS011;59939;52.516;13.420;2023-02-28T09:16:49;9.57;;;2.60;;
72065;SDS011;59939;52.516;13.420;2023-02-28T09:19:53;7.43;;;2.40;;
72065;SDS011;59939;52.516;13.420;2023-02-28T09:22:57;6.43;;;2.80;;
72065;SDS011;59939;52.516;13.420;2023-02-28T09:26:16;6.60;;;2.37;;
72065;SDS011;59939;52.516;13.420;2023-02-28T09:29:20;6.47;;;2.60;;
72065;SDS011;59939;52.516;13.420;2023-02-28T09:32:24;7.33;;;2.83;;
72065;SDS011;59939;52.516;13.420;2023-02-28T09:35:30;9.27;;;2.90;;
72065;SDS011;59939;52.516;13.420;2023-02-28T09:38:34;10.77;;;3.17;;
72065;SDS011;59939;52.516;13.420;2023-02-28T09:41:40;10.73;;;2.87;;
72065;SDS011;59939;52.516;13.420;2023-02-28T09:44:57;8.57;;;2.83;;
72065;SDS011;59939;52.516;13.420;2023-02-28T09:48:03;9.00;;;3.30;;
72065;SDS011;59939;52.516;13.420;2023-02-28T09:54:30;7.40;;;2.87;;
72065;SDS011;59939;52.516;13.420;2023-02-28T09:57:37;6.97;;;2.43;;
72065;SDS011;59939;52.516;13.420;2023-02-28T10:00:45;8.77;;;3.10;;
72065;SDS011;59939;52.516;13.420;2023-02-28T10:11:02;7.85;;;2.50;;
72065;SDS011;59939;52.516;13.420;2023-02-28T10:14:18;7.70;;;2.70;;
72065;SDS011;59939;52.516;13.420;2023-02-28T10:17:32;9.67;;;2.60;;
72065;SDS011;59939;52.516;13.420;2023-02-28T10:20:47;7.50;;;2.40;;
72065;SDS011;59939;52.516;13.420;2023-02-28T10:24:03;10.55;;;3.20;;
72065;SDS011;59939;52.516;13.420;2023-02-28T10:30:19;8.35;;;2.67;;
72065;SDS011;59939;52.516;13.420;2023-02-28T10:33:30;8.27;;;2.50;;
72065;SDS011;59939;52.516;13.420;2023-02-28T10:36:37;8.40;;;2.65;;
72065;SDS011;59939;52.516;13.420;2023-02-28T10:39:44;9.35;;;2.53;;
72065;SDS011;59939;52.516;13.420;2023-02-28T10:43:00;8.80;;;2.90;;
72065;SDS011;59939;52.516;13.420;2023-02-28T10:46:18;8.05;;;2.47;;
72065;SDS011;59939;52.516;13.420;2023-02-28T10:49:36;8.75;;;2.65;;
72065;SDS011;59939;52.516;13.420;2023-02-28T10:52:52;7.97;;;2.42;;
72065;SDS011;59939;52.516;13.420;2023-02-28T10:56:01;8.63;;;2.70;;
72065;SDS011;59939;52.516;13.420;2023-02-28T10:59:22;6.53;;;2.22;;
72065;SDS011;59939;52.516;13.420;2023-02-28T11:02:29;7.05;;;2.40;;
72065;SDS011;59939;52.516;13.420;2023-02-28T11:05:42;7.72;;;2.63;;
72065;SDS011;59939;52.516;13.420;2023-02-28T11:08:47;8.52;;;2.45;;
72065;SDS011;59939;52.516;13.420;2023-02-28T11:11:52;8.27;;;2.88;;
72065;SDS011;59939;52.516;13.420;2023-02-28T11:15:00;6.00;;;2.55;;
72065;SDS011;59939;52.516;13.420;2023-02-28T11:21:36;8.67;;;2.87;;
72065;SDS011;59939;52.516;13.420;2023-02-28T11:24:44;10.90;;;2.80;;
72065;SDS011;59939;52.516;13.420;2023-02-28T11:27:51;8.60;;;2.70;;
72065;SDS011;59939;52.516;13.420;2023-02-28T11:31:14;7.82;;;2.55;;
72065;SDS011;59939;52.516;13.420;2023-02-28T11:34:26;9.50;;;3.20;;
72065;SDS011;59939;52.516;13.420;2023-02-28T11:37:31;11.30;;;3.45;;
72065;SDS011;59939;52.516;13.420;2023-02-28T11:40:39;9.38;;;3.25;;
72065;SDS011;59939;52.516;13.420;2023-02-28T11:43:56;10.75;;;3.40;;
72065;SDS011;59939;52.516;13.420;2023-02-28T11:50:26;10.15;;;4.00;;
72065;SDS011;59939;52.516;13.420;2023-02-28T11:56:49;10.18;;;3.38;;
72065;SDS011;59939;52.516;13.420;2023-02-28T11:59:59;8.45;;;3.30;;
72065;SDS011;59939;52.516;13.420;2023-02-28T12:03:17;10.07;;;3.22;;
72065;SDS011;59939;52.516;13.420;2023-02-28T12:06:37;12.57;;;3.70;;
72065;SDS011;59939;52.516;13.420;2023-02-28T12:10:44;11.43;;;4.35;;
72065;SDS011;59939;52.516;13.420;2023-02-28T12:13:18;10.57;;;3.67;;
72065;SDS011;59939;52.516;13.420;2023-02-28T12:16:39;13.45;;;3.78;;
72065;SDS011;59939;52.516;13.420;2023-02-28T12:19:52;10.02;;;3.75;;
72065;SDS011;59939;52.516;13.420;2023-02-28T12:23:09;10.98;;;3.42;;
72065;SDS011;59939;52.516;13.420;2023-02-28T12:32:57;9.23;;;2.97;;
72065;SDS011;59939;52.516;13.420;2023-02-28T12:36:05;9.07;;;3.25;;
72065;SDS011;59939;52.516;13.420;2023-02-28T12:39:28;9.52;;;3.00;;
72065;SDS011;59939;52.516;13.420;2023-02-28T12:42:40;10.25;;;3.05;;
72065;SDS011;59939;52.516;13.420;2023-02-28T12:45:55;10.48;;;3.30;;
72065;SDS011;59939;52.516;13.420;2023-02-28T12:49:10;10.15;;;2.90;;
72065;SDS011;59939;52.516;13.420;2023-02-28T12:52:18;8.52;;;3.35;;
72065;SDS011;59939;52.516;13.420;2023-02-28T13:06:10;8.10;;;2.95;;
72065;SDS011;59939;52.516;13.420;2023-02-28T13:09:21;7.72;;;2.80;;
72065;SDS011;59939;52.516;13.420;2023-02-28T13:12:27;8.50;;;3.08;;
72065;SDS011;59939;52.516;13.420;2023-02-28T13:15:32;9.88;;;3.10;;
72065;SDS011;59939;52.516;13.420;2023-02-28T13:18:42;10.90;;;3.15;;
72065;SDS011;59939;52.516;13.420;2023-02-28T13:21:49;9.02;;;3.08;;
72065;SDS011;59939;52.516;13.420;2023-02-28T13:24:54;7.53;;;3.03;;
72065;SDS011;59939;52.516;13.420;2023-02-28T13:27:58;9.48;;;3.28;;
72065;SDS011;59939;52.516;13.420;2023-02-28T13:31:07;9.30;;;3.10;;
72065;SDS011;59939;52.516;13.420;2023-02-28T13:34:15;8.27;;;2.90;;
72065;SDS011;59939;52.516;13.420;2023-02-28T13:37:34;10.05;;;3.20;;
72065;SDS011;59939;52.516;13.420;2023-02-28T13:40:38;8.20;;;3.20;;
72065;SDS011;59939;52.516;13.420;2023-02-28T13:50:48;11.00;;;3.38;;
72065;SDS011;59939;52.516;13.420;2023-02-28T13:54:00;10.40;;;3.05;;
72065;SDS011;59939;52.516;13.420;2023-02-28T13:57:21;8.38;;;2.78;;
72065;SDS011;59939;52.516;13.420;2023-02-28T14:00:43;8.43;;;2.97;;
72065;SDS011;59939;52.516;13.420;2023-02-28T14:04:12;7.78;;;3.00;;
72065;SDS011;59939;52.516;13.420;2023-02-28T14:07:23;8.48;;;3.00;;
72065;SDS011;59939;52.516;13.420;2023-02-28T14:10:41;9.50;;;3.00;;
72065;SDS011;59939;52.516;13.420;2023-02-28T14:13:48;10.80;;;2.92;;
72065;SDS011;59939;52.516;13.420;2023-02-28T14:16:52;11.27;;;3.20;;
72065;SDS011;59939;52.516;13.420;2023-02-28T14:19:56;9.47;;;3.27;;
72065;SDS011;59939;52.516;13.420;2023-02-28T14:23:16;10.93;;;3.37;;
72065;SDS011;59939;52.516;13.420;2023-02-28T14:33:05;10.60;;;3.47;;
72065;SDS011;59939;52.516;13.420;2023-02-28T14:36:21;9.95;;;3.20;;
72065;SDS011;59939;52.516;13.420;2023-02-28T14:39:30;10.93;;;3.10;;
72065;SDS011;59939;52.516;13.420;2023-02-28T14:42:56;10.73;;;3.40;;
72065;SDS011;59939;52.516;13.420;2023-02-28T14:46:04;10.68;;;3.25;;
72065;SDS011;59939;52.516;13.420;2023-02-28T14:49:13;9.65;;;3.25;;
72065;SDS011;59939;52.516;13.420;2023-02-28T14:52:22;10.18;;;3.58;;
72065;SDS011;59939;52.516;13.420;2023-02-28T14:55:31;8.52;;;3.42;;
72065;SDS011;59939;52.516;13.420;2023-02-28T14:58:38;9.93;;;2.72;;
72065;SDS011;59939;52.516;13.420;2023-02-28T15:01:42;9.32;;;3.47;;
72065;SDS011;59939;52.516;13.420;2023-02-28T15:04:56;10.13;;;3.47;;
72065;SDS011;59939;52.516;13.420;2023-02-28T15:08:22;9.48;;;3.08;;
72065;SDS011;59939;52.516;13.420;2023-02-28T15:11:25;10.95;;;3.40;;
72065;SDS011;59939;52.516;13.420;2023-02-28T15:14:29;7.87;;;2.90;;
72065;SDS011;59939;52.516;13.420;2023-02-28T15:17:42;10.47;;;3.40;;
72065;SDS011;59939;52.516;13.420;2023-02-28T15:21:06;9.43;;;3.13;;
72065;SDS011;59939;52.516;13.420;2023-02-28T15:24:16;9.00;;;3.37;;
72065;SDS011;59939;52.516;13.420;2023-02-28T15:27:28;12.20;;;3.67;;
72065;SDS011;59939;52.516;13.420;2023-02-28T15:30:33;9.10;;;3.27;;
72065;SDS011;59939;52.516;13.420;2023-02-28T15:33:36;10.87;;;3.40;;
72065;SDS011;59939;52.516;13.420;2023-02-28T15:36:40;10.80;;;3.80;;
72065;SDS011;59939;52.516;13.420;2023-02-28T15:39:44;12.90;;;3.43;;
72065;SDS011;59939;52.516;13.420;2023-02-28T15:43:05;10.60;;;3.47;;
72065;SDS011;59939;52.516;13.420;2023-02-28T15:46:10;11.53;;;3.80;;
72065;SDS011;59939;52.516;13.420;2023-02-28T15:49:17;10.57;;;3.60;;
72065;SDS011;59939;52.516;13.420;2023-02-28T15:52:28;8.37;;;3.03;;
72065;SDS011;59939;52.516;13.420;2023-02-28T15:55:37;9.33;;;3.10;;
72065;SDS011;59939;52.516;13.420;2023-02-28T15:58:41;10.87;;;3.50;;
72065;SDS011;59939;52.516;13.420;2023-02-28T16:05:29;8.63;;;3.33;;
72065;SDS011;59939;52.516;13.420;2023-02-28T16:08:51;9.87;;;3.70;;
72065;SDS011;59939;52.516;13.420;2023-02-28T16:12:01;12.17;;;3.87;;
72065;SDS011;59939;52.516;13.420;2023-02-28T16:15:15;8.77;;;3.20;;
72065;SDS011;59939;52.516;13.420;2023-02-28T16:18:28;9.20;;;3.33;;
72065;SDS011;59939;52.516;13.420;2023-02-28T16:21:31;11.23;;;3.57;;
72065;SDS011;59939;52.516;13.420;2023-02-28T16:24:35;10.03;;;3.47;;
72065;SDS011;59939;52.516;13.420;2023-02-28T16:27:42;9.53;;;3.77;;
72065;SDS011;59939;52.516;13.420;2023-02-28T16:30:47;14.40;;;3.93;;
72065;SDS011;59939;52.516;13.420;2023-02-28T16:33:51;13.37;;;3.57;;
72065;SDS011;59939;52.516;13.420;2023-02-28T16:36:54;11.53;;;4.20;;
72065;SDS011;59939;52.516;13.420;2023-02-28T16:39:58;14.43;;;4.40;;
72065;SDS011;59939;52.516;13.420;2023-02-28T16:43:04;8.20;;;3.20;;
72065;SDS011;59939;52.516;13.420;2023-02-28T16:46:09;10.97;;;3.70;;
72065;SDS011;59939;52.516;13.420;2023-02-28T16:49:14;13.13;;;4.30;;
72065;SDS011;59939;52.516;13.420;2023-02-28T16:52:18;12.57;;;4.07;;
72065;SDS011;59939;52.516;13.420;2023-02-28T16:55:24;13.70;;;3.70;;
72065;SDS011;59939;52.516;13.420;2023-02-28T16:58:29;14.47;;;4.03;;
72065;SDS011;59939;52.516;13.420;2023-02-28T17:01:33;12.73;;;4.03;;
72065;SDS011;59939;52.516;13.420;2023-02-28T17:04:39;11.60;;;4.00;;
72065;SDS011;59939;52.516;13.420;2023-02-28T17:07:43;11.63;;;4.80;;
72065;SDS011;59939;52.516;13.420;2023-02-28T17:10:49;10.80;;;3.80;;
72065;SDS011;59939;52.516;13.420;2023-02-28T17:13:53;10.50;;;3.90;;
72065;SDS011;59939;52.516;13.420;2023-02-28T17:16:59;14.87;;;3.90;;
72065;SDS011;59939;52.516;13.420;2023-02-28T17:20:03;12.67;;;4.20;;
72065;SDS011;59939;52.516;13.420;2023-02-28T17:23:08;11.13;;;3.93;;
72065;SDS011;59939;52.516;13.420;2023-02-28T17:26:12;11.17;;;4.17;;
72065;SDS011;59939;52.516;13.420;2023-02-28T17:29:22;12.47;;;4.07;;
72065;SDS011;59939;52.516;13.420;2023-02-28T17:32:30;14.93;;;4.43;;
72065;SDS011;59939;52.516;13.420;2023-02-28T17:35:34;12.90;;;4.53;;
72065;SDS011;59939;52.516;13.420;2023-02-28T17:38:38;10.73;;;4.10;;
72065;SDS011;59939;52.516;13.420;2023-02-28T17:41:42;13.33;;;4.50;;
72065;SDS011;59939;52.516;13.420;2023-02-28T17:44:47;12.97;;;4.47;;
72065;SDS011;59939;52.516;13.420;2023-02-28T17:47:50;12.07;;;4.30;;
72065;SDS011;59939;52.516;13.420;2023-02-28T17:51:01;14.33;;;5.00;;
72065;SDS011;59939;52.516;13.420;2023-02-28T17:57:35;12.67;;;4.70;;
72065;SDS011;59939;52.516;13.420;2023-02-28T18:00:39;12.47;;;4.80;;
72065;SDS011;59939;52.516;13.420;2023-02-28T18:03:46;13.93;;;4.50;;
72065;SDS011;59939;52.516;13.420;2023-02-28T18:06:52;16.03;;;5.13;;
72065;SDS011;59939;52.516;13.420;2023-02-28T18:09:56;15.23;;;4.97;;
72065;SDS011;59939;52.516;13.420;2023-02-28T18:12:59;13.50;;;4.77;;
72065;SDS011;59939;52.516;13.420;2023-02-28T18:16:11;13.90;;;4.90;;
72065;SDS011;59939;52.516;13.420;2023-02-28T18:19:22;15.40;;;5.50;;
72065;SDS011;59939;52.516;13.420;2023-02-28T18:22:27;18.20;;;5.80;;
72065;SDS011;59939;52.516;13.420;2023-02-28T18:25:33;15.20;;;5.30;;
72065;SDS011;59939;52.516;13.420;2023-02-28T18:28:37;15.73;;;5.40;;
72065;SDS011;59939;52.516;13.420;2023-02-28T18:31:43;16.43;;;6.13;;
72065;SDS011;59939;52.516;13.420;2023-02-28T18:34:48;18.00;;;6.63;;
72065;SDS011;59939;52.516;13.420;2023-02-28T18:37:51;18.73;;;6.03;;
72065;SDS011;59939;52.516;13.420;2023-02-28T18:40:57;14.77;;;5.57;;
72065;SDS011;59939;52.516;13.420;2023-02-28T18:44:03;14.87;;;5.90;;
72065;SDS011;59939;52.516;13.420;2023-02-28T18:47:21;16.93;;;6.40;;
72065;SDS011;59939;52.516;13.420;2023-02-28T18:50:33;18.53;;;6.87;;
72065;SDS011;59939;52.516;13.420;2023-02-28T18:53:43;15.33;;;6.13;;
72065;SDS011;59939;52.516;13.420;2023-02-28T18:56:54;16.83;;;6.33;;
72065;SDS011;59939;52.516;13.420;2023-02-28T19:00:01;17.40;;;6.90;;
72065;SDS011;59939;52.516;13.420;2023-02-28T19:03:05;18.60;;;7.87;;
72065;SDS011;59939;52.516;13.420;2023-02-28T19:06:09;17.97;;;6.90;;
72065;SDS011;59939;52.516;13.420;2023-02-28T19:09:13;17.97;;;7.17;;
72065;SDS011;59939;52.516;13.420;2023-02-28T19:12:17;17.40;;;6.03;;
72065;SDS011;59939;52.516;13.420;2023-02-28T19:15:23;15.97;;;6.77;;
72065;SDS011;59939;52.516;13.420;2023-02-28T19:18:26;14.27;;;6.20;;
72065;SDS011;59939;52.516;13.420;2023-02-28T19:21:31;18.27;;;6.23;;
72065;SDS011;59939;52.516;13.420;2023-02-28T19:24:35;14.90;;;5.77;;
72065;SDS011;59939;52.516;13.420;2023-02-28T19:27:40;16.43;;;5.67;;
72065;SDS011;59939;52.516;13.420;2023-02-28T19:30:45;15.70;;;5.60;;
72065;SDS011;59939;52.516;13.420;2023-02-28T19:34:03;15.40;;;5.17;;
72065;SDS011;59939;52.516;13.420;2023-02-28T19:37:07;12.53;;;4.97;;
72065;SDS011;59939;52.516;13.420;2023-02-28T19:40:11;17.43;;;7.07;;
72065;SDS011;59939;52.516;13.420;2023-02-28T19:43:16;16.33;;;5.83;;
72065;SDS011;59939;52.516;13.420;2023-02-28T19:46:20;18.17;;;7.50;;
72065;SDS011;59939;52.516;13.420;2023-02-28T19:49:26;13.73;;;4.93;;
72065;SDS011;59939;52.516;13.420;2023-02-28T19:52:32;17.37;;;5.33;;